Terminal Aerodrome Forecast
Issued by NWS Bismarck, ND

Home | Current Version | Previous Version | Text Only | Print | Product List | Glossary Off
Versions: 1 2 3 4 5 6 7 8 9 10 11 12 13 14 15 16 17 18 19 20

000
FTUS43 KBIS 262328
TAFISN
TAF
KISN 262328Z 2700/2724 01007KT P6SM VCTS OVC100CB
     FM270300 02006KT P6SM BKN070
     FM271100 VRB03KT P6SM OVC025
     FM271500 35005KT P6SM BKN035=

USA.gov is the U.S. government's official web portal to all federal, state and local government web resources and services.